Weather at Namorik Airport

Public forecast

Using degrees Celsius for public forecast. Weather courtesy of forecast.io.

Closest aviation weather report (METAR) to Namorik Airport

Report is more than 2 hours old.

Closest report is Marshall Islands International Airport, 206.5 nm (382.4 km) ENE.

2024/05/26 06:55 (retrieved 6 hours ago)

PKMJ 260655Z 07013K 15SM FEW015 SCT050 BKN300 29/25 A2983 RMK LAST

Closest aviation forecast (TAF) to Namorik Airport

Closest forecast is Marshall Islands International Airport, 206.5 nm (382.4 km) ENE.

2024/05/26 12:30 (retrieved 17 minutes ago)

TAF TAF PKMJ 261124Z 2612/2712 08015KT P6SM VCSH SCT015 SCT050